createdAt,value
2023-05-24T00:00:13.225Z,3.88
2023-05-24T00:02:44.374Z,3.25
2023-05-24T00:05:11.952Z,3.60
2023-05-24T00:07:39.394Z,4.32
2023-05-24T00:10:07.434Z,5.40
2023-05-24T00:12:34.815Z,3.95
2023-05-24T00:15:05.161Z,4.20
2023-05-24T00:17:41.084Z,6.40
2023-05-24T00:20:12.531Z,3.80
2023-05-24T00:22:43.836Z,4.00
2023-05-24T00:25:11.263Z,3.10
2023-05-24T00:27:38.736Z,3.50
2023-05-24T00:30:10.674Z,3.65
2023-05-24T00:32:43.046Z,3.70
2023-05-24T00:35:10.481Z,3.55
2023-05-24T00:37:38.000Z,3.72
2023-05-24T00:40:13.895Z,3.42
2023-05-24T00:43:04.275Z,3.33
2023-05-24T00:45:33.772Z,3.40
2023-05-24T00:48:01.855Z,3.75
2023-05-24T00:50:32.343Z,3.40
2023-05-24T00:53:02.729Z,3.30
2023-05-24T00:55:30.644Z,3.95
2023-05-24T00:57:58.464Z,3.28
2023-05-24T01:00:27.684Z,3.45
2023-05-24T01:02:55.283Z,3.50
2023-05-24T01:05:23.701Z,3.47
2023-05-24T01:08:03.596Z,3.67
2023-05-24T01:10:44.836Z,3.83
2023-05-24T01:13:39.781Z,3.38
2023-05-24T01:16:10.185Z,3.75
2023-05-24T01:19:00.441Z,3.60
2023-05-24T01:22:12.059Z,4.40
2023-05-24T01:25:08.443Z,3.85
2023-05-24T01:27:38.890Z,3.63
2023-05-24T01:30:07.731Z,3.30
2023-05-24T01:32:35.241Z,3.83
2023-05-24T01:35:02.584Z,3.60
2023-05-24T01:37:29.766Z,4.47
2023-05-24T01:39:57.008Z,3.53
2023-05-24T01:42:30.683Z,3.70
2023-05-24T01:45:21.384Z,4.10
2023-05-24T01:47:51.297Z,3.35
2023-05-24T01:50:25.933Z,3.70
2023-05-24T01:52:54.900Z,3.53
2023-05-24T01:55:23.026Z,3.33
2023-05-24T01:57:51.587Z,3.50
2023-05-24T02:00:20.495Z,4.07
2023-05-24T02:02:48.160Z,3.80
2023-05-24T02:05:16.986Z,3.30
2023-05-24T02:07:44.119Z,3.53
2023-05-24T02:10:11.336Z,3.70
2023-05-24T02:12:38.540Z,3.63
2023-05-24T02:15:07.469Z,4.65
2023-05-24T02:17:35.686Z,4.68
2023-05-24T02:20:04.038Z,3.92
2023-05-24T02:22:31.298Z,4.18
2023-05-24T02:24:58.504Z,3.78
2023-05-24T02:27:25.713Z,3.60
2023-05-24T02:29:52.917Z,3.85
2023-05-24T02:32:20.027Z,4.28
2023-05-24T02:34:47.185Z,3.67
2023-05-24T02:37:14.851Z,3.55
2023-05-24T02:39:42.237Z,4.43
2023-05-24T02:42:11.224Z,3.40
2023-05-24T02:44:38.411Z,3.20
2023-05-24T02:47:05.790Z,3.65
2023-05-24T02:49:32.945Z,4.43
2023-05-24T02:52:00.180Z,4.75
2023-05-24T02:54:27.331Z,4.88
2023-05-24T02:56:56.633Z,3.67
2023-05-24T02:59:24.965Z,4.28
2023-05-24T03:01:52.455Z,4.03
2023-05-24T03:04:19.750Z,4.30
2023-05-24T03:06:47.219Z,3.60
2023-05-24T03:09:16.660Z,4.50
2023-05-24T03:11:44.873Z,3.83
2023-05-24T03:14:12.070Z,3.83
2023-05-24T03:16:41.900Z,3.90
2023-05-24T03:19:10.029Z,3.58
2023-05-24T03:21:38.061Z,3.33
2023-05-24T03:24:05.601Z,3.50
2023-05-24T03:26:33.145Z,3.83
2023-05-24T03:29:00.584Z,4.35
2023-05-24T03:31:34.538Z,3.85
2023-05-24T03:34:01.952Z,4.15
2023-05-24T03:36:30.879Z,4.45
2023-05-24T03:38:59.108Z,3.63
2023-05-24T03:41:28.171Z,3.50
2023-05-24T03:43:59.864Z,4.40
2023-05-24T03:46:28.980Z,4.28
2023-05-24T03:48:56.262Z,3.58
2023-05-24T03:51:29.450Z,3.80
2023-05-24T03:53:57.337Z,3.38
2023-05-24T03:56:29.342Z,3.55
2023-05-24T03:59:00.484Z,3.17
2023-05-24T04:01:34.014Z,3.38
2023-05-24T04:04:05.348Z,3.55
2023-05-24T04:06:32.579Z,3.92
2023-05-24T04:09:00.839Z,3.90
2023-05-24T04:11:28.491Z,4.32
2023-05-24T04:13:57.191Z,4.03
2023-05-24T04:16:26.016Z,3.80
2023-05-24T04:18:54.653Z,3.28
2023-05-24T04:21:23.027Z,4.03
2023-05-24T04:23:50.210Z,4.32
2023-05-24T04:26:17.789Z,3.72
2023-05-24T04:28:48.477Z,3.80
2023-05-24T04:31:16.345Z,3.72
2023-05-24T04:33:43.640Z,3.95
2023-05-24T04:36:11.957Z,3.33
2023-05-24T04:38:40.788Z,4.63
2023-05-24T04:41:08.061Z,3.53
2023-05-24T04:43:35.365Z,3.58
2023-05-24T04:46:02.974Z,3.50
2023-05-24T04:48:30.188Z,4.35
2023-05-24T04:51:00.640Z,4.05
2023-05-24T04:53:27.823Z,3.55
2023-05-24T04:55:55.014Z,3.40
2023-05-24T04:58:22.183Z,4.43
2023-05-24T05:00:49.385Z,3.80
2023-05-24T05:03:16.620Z,3.17
2023-05-24T05:05:44.457Z,3.38
2023-05-24T05:08:11.583Z,4.65
2023-05-24T05:10:38.707Z,3.47
2023-05-24T05:13:05.894Z,4.28
2023-05-24T05:15:33.303Z,5.30
2023-05-24T05:18:00.713Z,3.97
2023-05-24T05:20:27.954Z,4.72
2023-05-24T05:22:55.141Z,3.65
2023-05-24T05:25:22.431Z,4.28
2023-05-24T05:27:49.568Z,4.22
2023-05-24T05:30:16.731Z,4.97
2023-05-24T05:32:43.997Z,3.95
2023-05-24T05:35:11.461Z,4.35
2023-05-24T05:37:38.627Z,4.93
2023-05-24T05:40:06.973Z,5.53
2023-05-24T05:42:34.139Z,4.05
2023-05-24T05:45:01.331Z,4.47
2023-05-24T05:47:28.463Z,4.45
2023-05-24T05:49:55.860Z,4.68
2023-05-24T05:52:23.019Z,4.43
2023-05-24T05:54:50.244Z,3.90
2023-05-24T05:57:19.576Z,4.45
2023-05-24T05:59:46.781Z,4.97
2023-05-24T06:02:14.015Z,3.97
2023-05-24T06:04:41.277Z,3.47
2023-05-24T06:07:08.442Z,3.83
2023-05-24T06:09:35.597Z,4.05
2023-05-24T06:12:02.783Z,5.57
2023-05-24T06:14:30.573Z,4.63
2023-05-24T06:16:58.754Z,4.38
2023-05-24T06:19:27.445Z,3.88
2023-05-24T06:21:54.554Z,4.45
2023-05-24T06:24:22.146Z,4.30
2023-05-24T06:26:51.193Z,4.53
2023-05-24T06:29:22.389Z,5.13
2023-05-24T06:31:50.212Z,6.25
2023-05-24T06:34:21.026Z,5.55
2023-05-24T06:36:48.655Z,6.65
2023-05-24T06:39:16.368Z,6.53
2023-05-24T06:41:44.487Z,6.15
2023-05-24T06:44:11.790Z,5.97
2023-05-24T06:46:39.422Z,5.25
2023-05-24T06:49:06.964Z,4.75
2023-05-24T06:51:34.162Z,7.20
2023-05-24T06:54:01.596Z,4.50
2023-05-24T06:56:28.840Z,5.28
2023-05-24T06:58:56.758Z,5.30
2023-05-24T07:01:23.957Z,4.28
2023-05-24T07:03:51.574Z,6.38
2023-05-24T07:06:18.813Z,5.47
2023-05-24T07:08:45.995Z,7.03
2023-05-24T07:11:13.218Z,4.30
2023-05-24T07:13:40.366Z,4.18
2023-05-24T07:16:07.561Z,5.15
2023-05-24T07:18:34.711Z,4.40
2023-05-24T07:21:01.862Z,4.60
2023-05-24T07:23:29.296Z,4.97
2023-05-24T07:25:56.614Z,4.78
2023-05-24T07:28:23.721Z,4.32
2023-05-24T07:30:51.354Z,5.20
2023-05-24T07:33:18.731Z,5.75
2023-05-24T07:35:51.214Z,3.70
2023-05-24T07:38:18.727Z,5.18
2023-05-24T07:40:46.097Z,4.28
2023-05-24T07:43:13.415Z,3.97
2023-05-24T07:45:41.058Z,3.83
2023-05-24T07:48:08.475Z,4.97
2023-05-24T07:50:36.100Z,4.18
2023-05-24T07:53:05.214Z,4.10
2023-05-24T07:55:32.336Z,4.40
2023-05-24T07:57:59.546Z,3.97
2023-05-24T08:00:26.729Z,3.88
2023-05-24T08:02:53.975Z,4.93
2023-05-24T08:05:22.075Z,3.92
2023-05-24T08:07:49.251Z,3.88
2023-05-24T08:10:16.630Z,5.00
2023-05-24T08:12:43.946Z,4.57
2023-05-24T08:15:11.280Z,4.60
2023-05-24T08:17:39.297Z,4.20
2023-05-24T08:20:09.622Z,4.13
2023-05-24T08:22:37.575Z,4.70
2023-05-24T08:25:06.634Z,4.68
2023-05-24T08:27:33.888Z,4.13
2023-05-24T08:30:01.157Z,4.30
2023-05-24T08:32:28.440Z,5.53
2023-05-24T08:35:06.698Z,4.78
2023-05-24T08:37:43.525Z,4.43
2023-05-24T08:40:10.822Z,4.63
2023-05-24T08:42:39.274Z,4.15
2023-05-24T08:45:13.185Z,4.72
2023-05-24T08:47:41.156Z,4.82
2023-05-24T08:50:08.939Z,4.35
2023-05-24T08:52:36.877Z,5.57
2023-05-24T08:55:05.307Z,4.53
2023-05-24T08:57:34.571Z,5.93
2023-05-24T09:00:01.945Z,4.85
2023-05-24T09:02:30.217Z,4.90
2023-05-24T09:04:58.560Z,5.40
2023-05-24T09:07:26.715Z,6.03
2023-05-24T09:10:00.209Z,4.70
2023-05-24T09:12:37.459Z,4.65
2023-05-24T09:15:08.120Z,4.60
2023-05-24T09:17:36.837Z,4.63
2023-05-24T09:20:07.532Z,4.68
2023-05-24T09:22:40.345Z,5.07
2023-05-24T09:25:09.718Z,5.43
2023-05-24T09:27:37.550Z,4.90
2023-05-24T09:30:10.078Z,4.25
2023-05-24T09:32:37.363Z,4.60
2023-05-24T09:35:08.452Z,6.60
2023-05-24T09:37:36.554Z,5.47
2023-05-24T09:40:06.797Z,4.43
2023-05-24T09:42:33.977Z,4.80
2023-05-24T09:45:08.800Z,4.57
2023-05-24T09:47:37.594Z,5.72
2023-05-24T09:50:06.940Z,5.97
2023-05-24T09:52:37.831Z,5.35
2023-05-24T09:57:50.885Z,4.53
2023-05-24T10:00:25.149Z,4.95
2023-05-24T10:03:10.709Z,4.90
2023-05-24T10:05:38.989Z,5.43
2023-05-24T10:08:06.257Z,6.40
2023-05-24T10:10:33.930Z,5.57
2023-05-24T10:13:02.598Z,4.57
2023-05-24T10:15:30.640Z,6.15
2023-05-24T10:17:58.969Z,5.95
2023-05-24T10:20:26.742Z,5.70
2023-05-24T10:23:01.644Z,5.60
2023-05-24T10:25:29.976Z,7.18
2023-05-24T10:28:00.728Z,6.68
2023-05-24T10:30:52.948Z,5.47
2023-05-24T10:33:23.000Z,4.80
2023-05-24T10:35:51.237Z,5.10
2023-05-24T10:38:21.993Z,5.13
2023-05-24T10:43:17.658Z,4.72
2023-05-24T10:45:49.549Z,4.55
2023-05-24T10:48:17.618Z,5.03
2023-05-24T10:50:45.279Z,5.43
2023-05-24T10:53:17.689Z,6.75
2023-05-24T10:55:52.474Z,5.57
2023-05-24T10:58:20.325Z,5.25
2023-05-24T11:00:51.265Z,7.03
2023-05-24T11:03:23.683Z,6.57
2023-05-24T11:05:53.307Z,7.22
2023-05-24T11:08:35.274Z,7.18
2023-05-24T11:11:22.156Z,8.18
2023-05-24T11:13:57.313Z,8.05
2023-05-24T11:16:36.352Z,6.38
2023-05-24T11:19:22.330Z,8.10
2023-05-24T11:21:53.643Z,7.20
2023-05-24T11:24:22.031Z,7.57
2023-05-24T11:26:50.520Z,8.10
2023-05-24T11:29:20.766Z,10.30
2023-05-24T11:31:50.616Z,8.88
2023-05-24T11:34:18.726Z,7.78
2023-05-24T11:36:47.227Z,10.23
2023-05-24T11:39:14.977Z,6.57
2023-05-24T11:41:42.206Z,9.77
2023-05-24T11:44:11.754Z,6.70
2023-05-24T11:46:39.688Z,8.77
2023-05-24T11:49:07.228Z,6.38
2023-05-24T11:51:35.708Z,8.30
2023-05-24T11:54:03.008Z,8.38
2023-05-24T11:56:33.580Z,9.88
2023-05-24T11:59:15.994Z,8.57
2023-05-24T12:01:44.105Z,7.88
2023-05-24T12:04:11.850Z,8.13
2023-05-24T12:06:44.272Z,7.72
2023-05-24T12:09:14.995Z,10.18
2023-05-24T12:14:23.208Z,10.32
2023-05-24T12:16:50.341Z,10.00
2023-05-24T12:21:56.121Z,10.57
2023-05-24T12:24:24.862Z,8.32
2023-05-24T12:26:52.077Z,10.68
2023-05-24T12:29:19.577Z,8.35
2023-05-24T12:31:50.364Z,8.63
2023-05-24T12:36:46.791Z,9.30
2023-05-24T12:39:26.926Z,10.57
2023-05-24T12:41:55.700Z,10.05
2023-05-24T12:44:25.341Z,10.77
2023-05-24T12:46:54.706Z,10.77
2023-05-24T12:49:22.416Z,9.27
2023-05-24T12:51:50.046Z,8.95
2023-05-24T12:54:19.524Z,10.13
2023-05-24T12:56:47.232Z,8.13
2023-05-24T12:59:14.828Z,10.32
2023-05-24T13:01:42.361Z,10.68
2023-05-24T13:04:10.828Z,10.20
2023-05-24T13:06:38.135Z,12.40
2023-05-24T13:09:06.361Z,11.23
2023-05-24T13:11:33.635Z,10.68
2023-05-24T13:14:00.780Z,8.60
2023-05-24T13:16:28.233Z,11.20
2023-05-24T13:18:55.645Z,9.75
2023-05-24T13:21:22.887Z,7.85
2023-05-24T13:23:50.029Z,9.35
2023-05-24T13:26:18.368Z,8.88
2023-05-24T13:29:02.557Z,9.52
2023-05-24T13:31:33.426Z,8.88
2023-05-24T13:34:01.122Z,9.88
2023-05-24T13:36:28.289Z,8.23
2023-05-24T13:39:06.531Z,9.05
2023-05-24T13:41:41.416Z,7.93
2023-05-24T13:44:08.844Z,8.32
2023-05-24T13:46:36.518Z,10.38
2023-05-24T13:49:04.903Z,8.88
2023-05-24T13:51:32.878Z,10.18
2023-05-24T13:54:00.260Z,7.97
2023-05-24T13:56:32.633Z,10.43
2023-05-24T13:59:02.563Z,9.38
2023-05-24T14:01:30.505Z,9.65
2023-05-24T14:03:57.745Z,11.38
2023-05-24T14:06:24.914Z,10.82
2023-05-24T14:08:53.246Z,8.98
2023-05-24T14:11:20.389Z,12.68
2023-05-24T14:16:18.595Z,12.18
2023-05-24T14:18:48.801Z,8.82
2023-05-24T14:21:16.242Z,11.43
2023-05-24T14:23:43.410Z,12.77
2023-05-24T14:26:10.932Z,9.75
2023-05-24T14:28:38.167Z,11.13
2023-05-24T14:31:05.310Z,9.63
2023-05-24T14:33:32.504Z,10.98
2023-05-24T14:35:59.689Z,7.40
2023-05-24T14:38:27.877Z,10.55
2023-05-24T14:40:56.826Z,9.05
2023-05-24T14:43:24.011Z,8.90
2023-05-24T14:45:51.469Z,8.20
2023-05-24T14:48:19.134Z,9.90
2023-05-24T14:50:46.644Z,8.38
2023-05-24T14:53:14.005Z,9.25
2023-05-24T14:55:43.455Z,9.75
2023-05-24T14:58:12.463Z,12.52
2023-05-24T15:00:41.208Z,9.07
2023-05-24T15:03:09.298Z,8.50
2023-05-24T15:05:37.052Z,9.45
2023-05-24T15:08:05.409Z,8.93
2023-05-24T15:10:33.239Z,9.77
2023-05-24T15:13:01.262Z,39.05
2023-05-24T15:15:28.527Z,14.63
2023-05-24T15:17:57.130Z,10.75
2023-05-24T15:22:52.859Z,11.82
2023-05-24T15:25:20.582Z,9.13
2023-05-24T15:27:48.072Z,9.00
2023-05-24T15:30:17.174Z,11.18
2023-05-24T15:32:46.040Z,10.43
2023-05-24T15:35:13.341Z,9.48
2023-05-24T15:37:41.421Z,12.98
2023-05-24T15:40:12.456Z,7.75
2023-05-24T15:42:39.722Z,8.82
2023-05-24T15:45:07.271Z,9.40
2023-05-24T15:47:39.772Z,7.93
2023-05-24T15:50:08.361Z,11.35
2023-05-24T15:52:35.686Z,8.57
2023-05-24T15:55:02.928Z,11.23
2023-05-24T15:57:30.774Z,8.20
2023-05-24T15:59:57.954Z,7.82
2023-05-24T16:02:25.574Z,9.48
2023-05-24T16:04:52.826Z,9.00
2023-05-24T16:07:20.080Z,9.63
2023-05-24T16:09:47.342Z,8.45
2023-05-24T16:12:14.444Z,9.95
2023-05-24T16:14:41.659Z,9.70
2023-05-24T16:17:08.927Z,8.10
2023-05-24T16:19:36.395Z,10.13
2023-05-24T16:22:04.323Z,9.50
2023-05-24T16:24:31.495Z,12.43
2023-05-24T16:26:58.723Z,9.10
2023-05-24T16:29:26.614Z,11.52
2023-05-24T16:31:53.817Z,10.68
2023-05-24T16:34:23.591Z,9.00
2023-05-24T16:36:51.037Z,9.93
2023-05-24T16:39:18.294Z,10.07
2023-05-24T16:41:45.555Z,9.43
2023-05-24T16:44:17.418Z,10.40
2023-05-24T16:46:45.640Z,11.25
2023-05-24T16:49:13.154Z,9.57
2023-05-24T16:51:40.473Z,8.63
2023-05-24T16:54:08.813Z,9.30
2023-05-24T16:56:37.357Z,9.90
2023-05-24T16:59:04.627Z,10.57
2023-05-24T17:01:31.828Z,9.65
2023-05-24T17:03:59.052Z,9.85
2023-05-24T17:06:26.349Z,8.80
2023-05-24T17:08:53.602Z,10.65
2023-05-24T17:11:20.972Z,9.27
2023-05-24T17:13:48.414Z,10.10
2023-05-24T17:16:15.658Z,9.20
2023-05-24T17:18:42.845Z,10.27
2023-05-24T17:21:10.655Z,10.23
2023-05-24T17:23:37.861Z,8.68
2023-05-24T17:26:07.789Z,8.65
2023-05-24T17:28:36.115Z,9.45
2023-05-24T17:31:03.547Z,9.60
2023-05-24T17:33:31.716Z,9.68
2023-05-24T17:36:04.248Z,11.50
2023-05-24T17:38:32.997Z,8.95
2023-05-24T17:41:00.390Z,9.98
2023-05-24T17:43:28.986Z,9.65
2023-05-24T17:46:04.019Z,11.52
2023-05-24T17:48:39.226Z,10.02
2023-05-24T17:51:08.240Z,10.45
2023-05-24T17:53:37.143Z,11.43
2023-05-24T17:56:05.403Z,9.07
2023-05-24T17:58:35.725Z,11.50
2023-05-24T18:01:07.994Z,9.75
2023-05-24T18:03:36.962Z,9.82
2023-05-24T18:06:06.446Z,10.30
2023-05-24T18:08:36.156Z,10.65
2023-05-24T18:11:08.064Z,9.18
2023-05-24T18:13:37.057Z,13.32
2023-05-24T18:16:04.474Z,10.57
2023-05-24T18:18:32.789Z,10.57
2023-05-24T18:21:00.018Z,10.32
2023-05-24T18:23:27.159Z,10.07
2023-05-24T18:26:00.834Z,8.95
2023-05-24T18:28:30.266Z,9.10
2023-05-24T18:30:57.436Z,10.85
2023-05-24T18:33:24.638Z,9.95
2023-05-24T18:35:51.869Z,10.15
2023-05-24T18:38:18.998Z,8.70
2023-05-24T18:40:46.636Z,11.27
2023-05-24T18:43:13.789Z,9.52
2023-05-24T18:45:41.069Z,11.10
2023-05-24T18:48:08.614Z,9.23
2023-05-24T18:50:35.844Z,8.93
2023-05-24T18:53:02.979Z,9.98
2023-05-24T18:55:30.192Z,10.32
2023-05-24T18:57:57.464Z,10.63
2023-05-24T19:00:24.678Z,9.77
2023-05-24T19:02:52.095Z,9.85
2023-05-24T19:05:19.935Z,10.13
2023-05-24T19:07:47.130Z,11.02
2023-05-24T19:10:14.270Z,11.90
2023-05-24T19:12:41.466Z,9.05
2023-05-24T19:15:09.081Z,10.55
2023-05-24T19:17:36.327Z,8.73
2023-05-24T19:20:03.860Z,10.73
2023-05-24T19:22:31.064Z,9.00
2023-05-24T19:24:58.246Z,10.75
2023-05-24T19:27:25.582Z,10.05
2023-05-24T19:29:52.688Z,11.95
2023-05-24T19:32:22.748Z,8.60
2023-05-24T19:34:50.042Z,11.32
2023-05-24T19:37:17.242Z,11.20
2023-05-24T19:39:44.495Z,10.75
2023-05-24T19:42:12.014Z,9.95
2023-05-24T19:44:39.133Z,9.25
2023-05-24T19:47:06.410Z,9.57
2023-05-24T19:49:33.728Z,10.05
2023-05-24T19:52:01.023Z,10.85
2023-05-24T19:54:28.205Z,10.70
2023-05-24T19:56:57.615Z,11.75
2023-05-24T19:59:24.751Z,9.30
2023-05-24T20:01:51.912Z,11.13
2023-05-24T20:04:19.164Z,9.75
2023-05-24T20:06:46.359Z,9.50
2023-05-24T20:09:18.454Z,9.93
2023-05-24T20:11:46.146Z,11.40
2023-05-24T20:14:13.276Z,11.98
2023-05-24T20:16:40.510Z,10.63
2023-05-24T20:19:08.336Z,10.88
2023-05-24T20:21:36.527Z,12.25
2023-05-24T20:24:03.753Z,11.45
2023-05-24T20:26:33.256Z,11.05
2023-05-24T20:29:00.785Z,11.27
2023-05-24T20:31:28.021Z,10.88
2023-05-24T20:33:55.240Z,10.13
2023-05-24T20:36:22.440Z,9.38
2023-05-24T20:38:50.149Z,9.52
2023-05-24T20:41:17.912Z,11.20
2023-05-24T20:43:46.548Z,9.38
2023-05-24T20:46:14.158Z,9.63
2023-05-24T20:48:42.052Z,12.15
2023-05-24T20:51:09.810Z,11.05
2023-05-24T20:53:37.432Z,11.77
2023-05-24T20:56:04.749Z,9.18
2023-05-24T20:58:31.931Z,10.63
2023-05-24T21:00:59.321Z,10.80
2023-05-24T21:03:26.859Z,11.85
2023-05-24T21:05:54.189Z,9.68
2023-05-24T21:08:21.342Z,10.10
2023-05-24T21:10:48.567Z,12.75
2023-05-24T21:13:16.134Z,10.85
2023-05-24T21:15:45.389Z,11.35
2023-05-24T21:18:12.908Z,13.32
2023-05-24T21:20:40.342Z,11.20
2023-05-24T21:23:08.156Z,13.60
2023-05-24T21:25:35.259Z,10.45
2023-05-24T21:28:02.388Z,11.93
2023-05-24T21:30:30.206Z,10.93
2023-05-24T21:32:57.480Z,11.32
2023-05-24T21:35:25.938Z,9.30
2023-05-24T21:37:53.266Z,9.95
2023-05-24T21:40:20.535Z,11.18
2023-05-24T21:42:47.678Z,10.82
2023-05-24T21:45:14.907Z,10.25
2023-05-24T21:47:44.744Z,10.57
2023-05-24T21:50:11.935Z,11.45
2023-05-24T21:52:39.447Z,13.45
2023-05-24T21:55:06.844Z,10.63
2023-05-24T21:57:33.996Z,10.57
2023-05-24T22:00:01.828Z,10.88
2023-05-24T22:02:32.594Z,10.25
2023-05-24T22:04:59.793Z,11.13
2023-05-24T22:07:26.968Z,11.25
2023-05-24T22:09:54.242Z,11.48
2023-05-24T22:12:21.457Z,10.18
2023-05-24T22:14:48.652Z,11.02
2023-05-24T22:17:16.441Z,13.27
2023-05-24T22:19:43.950Z,10.52
2023-05-24T22:22:12.278Z,10.73
2023-05-24T22:24:39.502Z,12.77
2023-05-24T22:27:09.579Z,12.85
2023-05-24T22:29:36.791Z,11.10
2023-05-24T22:32:04.148Z,9.98
2023-05-24T22:34:31.456Z,10.05
2023-05-24T22:36:58.687Z,11.57
2023-05-24T22:39:25.990Z,13.18
2023-05-24T22:41:53.586Z,13.27
2023-05-24T22:44:20.983Z,11.35
2023-05-24T22:46:54.836Z,11.98
2023-05-24T22:49:22.449Z,11.05
2023-05-24T22:51:50.492Z,14.40
2023-05-24T22:54:17.816Z,12.23
2023-05-24T22:56:46.236Z,11.25
2023-05-24T22:59:13.370Z,9.57
2023-05-24T23:01:40.659Z,10.95
2023-05-24T23:04:20.340Z,11.82
2023-05-24T23:06:52.135Z,11.30
2023-05-24T23:09:28.823Z,10.10
2023-05-24T23:11:58.535Z,12.38
2023-05-24T23:14:50.650Z,11.60
2023-05-24T23:17:20.138Z,12.57
2023-05-24T23:19:50.144Z,13.23
2023-05-24T23:22:18.413Z,14.55
2023-05-24T23:24:47.137Z,12.32
2023-05-24T23:27:14.458Z,15.07
2023-05-24T23:29:41.706Z,11.40
2023-05-24T23:32:09.448Z,15.10
2023-05-24T23:34:37.088Z,14.00
2023-05-24T23:37:05.360Z,12.20
2023-05-24T23:39:32.709Z,15.35
2023-05-24T23:41:59.864Z,13.85
2023-05-24T23:44:27.125Z,12.65
2023-05-24T23:46:54.348Z,12.43
2023-05-24T23:49:21.482Z,9.98
2023-05-24T23:51:48.659Z,12.15
2023-05-24T23:54:15.853Z,13.80
2023-05-24T23:56:43.074Z,10.07
2023-05-24T23:59:10.470Z,14.55
